Time;durP1;ratioP1;P1;durP2;ratioP2;P2;SDS_P1;SDS_P2;PMS_P1;PMS_P2;Temp;Humidity;BMP_temperature;BMP_pressure;BME280_temperature;BME280_humidity;BME280_pressure;Samples;Min_cycle;Max_cycle;Signal;HPM_P1;HPM_P2
2023/12/18 00:01:54;;;;;;;11.85;8.02;;;;;;;5.93;100.00;103229.97;5269187;28;20416;-78
2023/12/18 00:04:26;;;;;;;14.07;7.70;;;;;;;5.94;100.00;103229.06;5268678;28;20125;-78
2023/12/18 00:06:58;;;;;;;12.23;8.53;;;;;;;6.01;100.00;103228.00;5267561;28;20032;-78
2023/12/18 00:09:30;;;;;;;14.02;8.32;;;;;;;6.03;100.00;103221.03;5265014;28;20059;-78
2023/12/18 00:12:02;;;;;;;13.35;8.80;;;;;;;6.03;100.00;103218.44;5268885;28;20123;-78
2023/12/18 00:14:36;;;;;;;14.93;9.40;;;;;;;6.07;100.00;103233.06;5268479;28;20029;-77
2023/12/18 00:17:07;;;;;;;;;;;;;;;6.56;100.00;103236.00;5267203;28;20047;-78
2023/12/18 00:19:39;;;;;;;16.83;9.05;;;;;;;6.18;100.00;103226.72;5266989;28;19916;-78
2023/12/18 00:22:11;;;;;;;13.77;9.43;;;;;;;6.19;100.00;103215.41;5249951;28;20032;-78
2023/12/18 00:24:43;;;;;;;12.38;9.05;;;;;;;6.18;100.00;103205.88;5269368;28;20025;-78
2023/12/18 00:27:15;;;;;;;13.57;8.95;;;;;;;6.17;100.00;103196.34;5267898;28;20041;-78
2023/12/18 00:29:47;;;;;;;13.88;8.73;;;;;;;6.22;100.00;103212.72;5266715;28;20150;-78
2023/12/18 00:32:19;;;;;;;16.27;10.07;;;;;;;6.17;100.00;103198.94;5269562;28;20120;-78
2023/12/18 00:34:51;;;;;;;12.88;9.55;;;;;;;6.27;100.00;103208.22;5267950;28;20032;-78
2023/12/18 00:37:24;;;;;;;13.50;8.93;;;;;;;6.28;100.00;103210.75;5265452;28;20163;-78
2023/12/18 00:39:56;;;;;;;11.65;9.60;;;;;;;6.25;100.00;103210.88;5267696;28;20510;-78
2023/12/18 00:42:28;;;;;;;13.25;9.60;;;;;;;6.26;100.00;103212.56;5269138;28;20468;-77
2023/12/18 00:45:00;;;;;;;14.00;10.40;;;;;;;6.27;100.00;103210.81;5266485;28;20092;-77
2023/12/18 00:47:32;;;;;;;13.15;10.32;;;;;;;6.31;100.00;103196.81;5265577;28;20119;-78
2023/12/18 00:50:07;;;;;;;16.23;10.20;;;;;;;6.31;100.00;103200.25;5267573;28;20029;-78
2023/12/18 00:52:39;;;;;;;14.95;10.05;;;;;;;6.38;100.00;103192.28;5270947;28;20039;-78
2023/12/18 00:55:11;;;;;;;14.20;9.93;;;;;;;6.40;100.00;103203.50;5266978;28;19924;-78
2023/12/18 00:57:44;;;;;;;18.08;10.27;;;;;;;6.43;100.00;103211.22;5266978;28;20474;-78
2023/12/18 01:00:16;;;;;;;16.03;10.63;;;;;;;6.45;100.00;103212.03;5246327;28;20680;-78
2023/12/18 01:02:48;;;;;;;16.73;11.23;;;;;;;6.47;100.00;103208.47;5267636;28;20072;-78
2023/12/18 01:05:20;;;;;;;15.02;10.77;;;;;;;6.48;100.00;103202.38;5267846;28;20112;-78
2023/12/18 01:07:52;;;;;;;14.20;10.70;;;;;;;6.45;100.00;103186.00;5270342;28;20131;-78
2023/12/18 01:10:24;;;;;;;14.93;10.95;;;;;;;6.48;100.00;103191.13;5267354;28;20037;-78
2023/12/18 01:12:56;;;;;;;14.38;10.95;;;;;;;6.47;100.00;103192.00;5266030;28;20139;-78
2023/12/18 01:15:27;;;;;;;13.23;10.70;;;;;;;6.49;100.00;103188.47;5258471;28;20304;-78
2023/12/18 01:17:59;;;;;;;14.88;11.73;;;;;;;6.47;100.00;103185.03;5268277;28;20502;-77
2023/12/18 01:20:31;;;;;;;16.02;12.32;;;;;;;6.52;100.00;103183.16;5263442;28;20029;-78
2023/12/18 01:23:05;;;;;;;16.00;12.00;;;;;;;6.51;100.00;103168.41;5264507;28;20025;-77
2023/12/18 01:25:37;;;;;;;17.27;11.18;;;;;;;6.52;100.00;103161.50;5267501;28;20126;-78
2023/12/18 01:28:08;;;;;;;14.50;11.60;;;;;;;6.57;100.00;103164.78;5266556;28;20049;-78
2023/12/18 01:30:40;;;;;;;15.45;12.43;;;;;;;6.62;100.00;103180.28;5266302;28;20041;-78
2023/12/18 01:33:12;;;;;;;16.73;12.10;;;;;;;6.64;100.00;103175.88;5267581;28;20032;-78
2023/12/18 01:35:44;;;;;;;15.68;11.85;;;;;;;6.64;100.00;103174.13;5266454;28;20025;-78
2023/12/18 01:38:16;;;;;;;17.90;12.30;;;;;;;6.69;100.00;103184.41;5265330;28;20029;-78
2023/12/18 01:40:48;;;;;;;18.20;12.13;;;;;;;6.69;100.00;103184.41;5265622;28;20123;-78
2023/12/18 01:43:26;;;;;;;16.52;12.15;;;;;;;6.77;100.00;103179.78;5266763;28;20500;-78
2023/12/18 01:46:00;;;;;;;19.08;12.35;;;;;;;6.74;100.00;103187.69;5266497;28;20028;-78
2023/12/18 01:48:33;;;;;;;20.50;13.57;;;;;;;6.74;100.00;103185.97;5268231;28;20032;-78
2023/12/18 01:51:05;;;;;;;21.80;12.68;;;;;;;6.75;100.00;103184.22;5273059;28;20037;-78
2023/12/18 01:53:44;;;;;;;17.63;12.85;;;;;;;6.84;100.00;103191.72;5270659;28;20047;-78
2023/12/18 01:56:20;;;;;;;21.77;13.13;;;;;;;6.73;100.00;103180.78;5268666;28;20028;-78
2023/12/18 01:58:53;;;;;;;20.75;13.02;;;;;;;6.79;100.00;103191.03;5265472;28;20037;-78
2023/12/18 02:01:28;;;;;;;17.08;13.38;;;;;;;6.75;100.00;103177.25;5265842;28;20044;-78
2023/12/18 02:03:59;;;;;;;18.15;12.57;;;;;;;6.77;100.00;103183.25;5265539;28;20037;-78
2023/12/18 02:06:31;;;;;;;17.80;12.20;;;;;;;6.76;100.00;103173.72;5265852;28;20040;-77
2023/12/18 02:09:04;;;;;;;17.00;12.57;;;;;;;6.77;100.00;103171.97;5263753;28;20040;-78
2023/12/18 02:11:36;;;;;;;17.27;12.93;;;;;;;6.80;100.00;103167.53;5267172;28;20044;-78
2023/12/18 02:14:08;;;;;;;20.98;12.55;;;;;;;6.81;100.00;103184.00;5266530;28;20402;-78
2023/12/18 02:16:40;;;;;;;19.20;12.23;;;;;;;6.84;100.00;103173.50;5264666;28;20044;-78
2023/12/18 02:19:29;;;;;;;19.42;13.07;;;;;;;7.02;100.00;103169.44;5263509;28;20040;-78
2023/12/18 02:22:01;;;;;;;18.42;12.27;;;;;;;6.85;100.00;103169.97;5264187;28;20044;-78
2023/12/18 02:24:33;;;;;;;17.75;12.68;;;;;;;6.82;100.00;103162.28;5264651;28;20401;-78
2023/12/18 02:27:04;;;;;;;17.80;12.15;;;;;;;6.84;100.00;103170.88;5265977;28;20045;-78
2023/12/18 02:29:36;;;;;;;19.48;12.35;;;;;;;6.85;100.00;103162.16;5265580;28;20039;-78
2023/12/18 02:32:08;;;;;;;18.20;11.82;;;;;;;6.84;100.00;103157.84;5267318;28;20421;-78
2023/12/18 02:34:40;;;;;;;15.98;12.02;;;;;;;6.78;100.00;103151.09;5263147;28;20032;-78
2023/12/18 02:37:12;;;;;;;17.42;12.18;;;;;;;6.85;100.00;103162.16;5268072;28;20036;-78
2023/12/18 02:39:44;;;;;;;14.95;12.27;;;;;;;6.89;100.00;103165.53;5265604;28;20028;-77
2023/12/18 02:42:16;;;;;;;17.17;12.10;;;;;;;6.91;100.00;103155.91;5265057;28;20025;-78
2023/12/18 02:44:48;;;;;;;19.05;12.00;;;;;;;6.90;100.00;103151.63;5265936;28;20029;-78
2023/12/18 02:47:20;;;;;;;18.93;11.93;;;;;;;6.93;100.00;103157.59;5264906;28;20028;-78
2023/12/18 02:49:52;;;;;;;15.57;12.20;;;;;;;6.91;100.00;103150.69;5262996;28;20033;-78
2023/12/18 02:52:24;;;;;;;24.23;13.50;;;;;;;6.94;100.00;103154.06;5269988;28;20040;-78
2023/12/18 02:54:56;;;;;;;16.85;11.50;;;;;;;6.91;100.00;103148.09;5267620;28;20063;-78
2023/12/18 02:57:28;;;;;;;17.05;12.52;;;;;;;6.90;100.00;103154.22;5264164;28;20028;-77
2023/12/18 03:00:00;;;;;;;15.35;12.60;;;;;;;6.89;100.00;103148.13;5264118;28;20037;-78
2023/12/18 03:02:32;;;;;;;18.50;13.10;;;;;;;6.88;100.00;103142.97;5267086;28;20038;-78
2023/12/18 03:05:05;;;;;;;16.42;12.52;;;;;;;6.85;100.00;103138.72;5265652;28;20020;-78
2023/12/18 03:07:37;;;;;;;18.13;13.35;;;;;;;6.89;100.00;103132.50;5265083;28;20043;-78
2023/12/18 03:10:09;;;;;;;19.52;13.48;;;;;;;6.89;100.00;103127.28;5264016;28;20024;-78
2023/12/18 03:12:40;;;;;;;16.27;12.60;;;;;;;6.89;100.00;103132.50;5265708;28;20037;-78
2023/12/18 03:15:12;;;;;;;16.38;12.68;;;;;;;6.85;100.00;103120.47;5265072;28;20033;-78
2023/12/18 03:17:44;;;;;;;16.95;12.57;;;;;;;6.90;100.00;103126.41;5262414;28;20037;-78
2023/12/18 03:20:16;;;;;;;17.40;12.32;;;;;;;6.92;100.00;103128.94;5263917;28;20032;-77
2023/12/18 03:22:48;;;;;;;16.83;13.45;;;;;;;6.94;100.00;103129.75;5262668;28;20032;-78
2023/12/18 03:25:20;;;;;;;18.10;13.45;;;;;;;6.94;100.00;103129.75;5261216;28;20037;-78
2023/12/18 03:27:52;;;;;;;23.00;14.07;;;;;;;6.94;100.00;103132.38;5265158;28;20056;-78
2023/12/18 03:30:24;;;;;;;18.20;13.95;;;;;;;6.91;100.00;103125.50;5262778;28;20024;-78
2023/12/18 03:32:56;;;;;;;18.42;13.10;;;;;;;6.90;100.00;103129.00;5263678;28;20033;-78
2023/12/18 03:35:27;;;;;;;15.43;12.98;;;;;;;6.89;100.00;103129.03;5263296;28;20028;-78
2023/12/18 03:37:59;;;;;;;19.80;12.77;;;;;;;6.91;100.00;103129.84;5264249;28;20039;-78
2023/12/18 03:40:31;;;;;;;20.13;13.20;;;;;;;6.93;100.00;103126.31;5267219;28;20039;-78
2023/12/18 03:43:04;;;;;;;19.55;13.93;;;;;;;6.92;100.00;103132.41;5263415;28;20059;-78
2023/12/18 03:45:36;;;;;;;17.77;13.55;;;;;;;6.93;100.00;103128.91;5265593;28;20035;-78
2023/12/18 03:48:08;;;;;;;21.33;14.18;;;;;;;6.95;100.00;103134.06;5263451;28;20576;-78
2023/12/18 03:50:40;;;;;;;17.95;13.70;;;;;;;6.94;100.00;103135.81;5263418;28;20040;-78
2023/12/18 03:53:12;;;;;;;17.45;14.02;;;;;;;6.93;100.00;103130.63;5262677;28;20037;-78
2023/12/18 03:55:44;;;;;;;19.85;14.43;;;;;;;6.94;100.00;103129.75;5263663;28;20041;-78
2023/12/18 03:58:16;;;;;;;19.45;14.18;;;;;;;6.96;100.00;103136.59;5263008;28;20033;-78
2023/12/18 04:00:48;;;;;;;18.80;14.35;;;;;;;6.96;100.00;103135.75;5263401;28;20038;-78
2023/12/18 04:03:20;;;;;;;18.38;13.40;;;;;;;6.96;100.00;103136.59;5264512;28;20036;-78
2023/12/18 04:05:52;;;;;;;17.23;13.90;;;;;;;6.94;100.00;103138.44;5262056;28;20025;-78
2023/12/18 04:08:24;;;;;;;19.02;14.38;;;;;;;6.99;100.00;103136.50;5263052;28;20036;-78
2023/12/18 04:10:56;;;;;;;20.50;13.93;;;;;;;7.01;100.00;103133.88;5261496;28;20025;-78
2023/12/18 04:13:28;;;;;;;20.70;13.82;;;;;;;7.03;100.00;103127.69;5261786;28;20119;-78
2023/12/18 04:15:59;;;;;;;20.98;14.60;;;;;;;7.03;100.00;103132.06;5262888;28;20070;-78
2023/12/18 04:18:31;;;;;;;21.80;14.45;;;;;;;6.98;100.00;103119.19;5260418;28;20025;-77
2023/12/18 04:21:03;;;;;;;20.02;13.82;;;;;;;7.02;100.00;103127.75;5261997;28;20478;-78
2023/12/18 04:23:35;;;;;;;19.27;14.32;;;;;;;7.03;100.00;103116.41;5263517;28;20037;-78
2023/12/18 04:26:08;;;;;;;18.63;13.77;;;;;;;7.05;100.00;103119.84;5264792;28;20391;-78
2023/12/18 04:28:40;;;;;;;19.17;14.00;;;;;;;7.00;100.00;103109.53;5262858;28;20052;-78
2023/12/18 04:31:12;;;;;;;18.83;14.52;;;;;;;7.05;100.00;103120.69;5264905;28;20606;-78
2023/12/18 04:33:44;;;;;;;17.73;13.40;;;;;;;7.04;100.00;103126.78;5261259;28;20036;-78
2023/12/18 04:36:16;;;;;;;22.52;14.57;;;;;;;7.04;100.00;103116.34;5262909;28;20032;-78
2023/12/18 04:38:48;;;;;;;19.90;14.35;;;;;;;7.05;100.00;103117.22;5259938;28;20048;-78
2023/12/18 04:41:20;;;;;;;18.38;14.10;;;;;;;7.04;100.00;103105.06;5263178;28;20033;-77
2023/12/18 04:43:52;;;;;;;21.40;13.95;;;;;;;7.09;100.00;103110.16;5261550;28;20044;-78
2023/12/18 04:46:24;;;;;;;21.38;14.70;;;;;;;7.04;100.00;103118.97;5256411;28;20024;-79
2023/12/18 04:48:56;;;;;;;21.00;14.80;;;;;;;7.09;100.00;103116.22;5260548;28;20390;-79
2023/12/18 04:51:29;;;;;;;19.75;13.55;;;;;;;7.11;100.00;103119.59;5262101;28;20037;-79
2023/12/18 04:54:01;;;;;;;23.17;13.90;;;;;;;7.12;100.00;103120.47;5260205;28;20061;-79
2023/12/18 04:56:33;;;;;;;21.95;14.75;;;;;;;7.11;100.00;103113.56;5262967;28;20032;-79
2023/12/18 04:59:04;;;;;;;22.75;14.32;;;;;;;7.09;100.00;103100.59;5259415;28;20035;-79
2023/12/18 05:01:36;;;;;;;22.73;15.00;;;;;;;7.05;100.00;103110.25;5259526;28;20047;-80
2023/12/18 05:04:08;;;;;;;19.75;13.57;;;;;;;7.06;100.00;103103.28;5259130;28;20442;-79
2023/12/18 05:06:41;;;;;;;21.23;15.35;;;;;;;7.06;100.00;103105.88;5254563;28;20429;-79
2023/12/18 05:09:12;;;;;;;20.20;14.32;;;;;;;7.02;100.00;103096.47;5239708;28;20056;-79
2023/12/18 05:11:44;;;;;;;22.15;14.68;;;;;;;7.07;100.00;103108.44;5260993;28;20041;-79
2023/12/18 05:14:17;;;;;;;18.98;12.95;;;;;;;7.07;100.00;103110.19;5244586;28;20033;-78
2023/12/18 05:16:49;;;;;;;20.25;15.13;;;;;;;7.11;100.00;103110.94;5264648;28;20028;-78
2023/12/18 05:19:21;;;;;;;21.27;14.40;;;;;;;7.09;100.00;103091.91;5258189;28;20031;-79
2023/12/18 05:21:52;;;;;;;20.55;14.27;;;;;;;7.09;100.00;103099.72;5239846;28;20055;-78
2023/12/18 05:24:24;;;;;;;20.63;14.57;;;;;;;7.07;100.00;103084.13;5264415;28;20025;-78
2023/12/18 05:26:56;;;;;;;21.23;15.05;;;;;;;7.09;100.00;103089.31;5265369;28;20040;-78
2023/12/18 05:29:28;;;;;;;22.33;15.55;;;;;;;7.07;100.00;103091.94;5261718;28;20469;-78
2023/12/18 05:32:00;;;;;;;23.60;15.10;;;;;;;7.06;100.00;103096.31;5263016;28;20514;-78
2023/12/18 05:34:32;;;;;;;23.80;16.42;;;;;;;7.01;100.00;103102.59;5266129;28;20036;-79
2023/12/18 05:37:04;;;;;;;23.30;14.95;;;;;;;7.03;100.00;103100.78;5265641;28;20037;-79
2023/12/18 05:39:36;;;;;;;25.35;15.68;;;;;;;7.03;100.00;103106.84;5266274;28;20016;-79
2023/12/18 05:42:07;;;;;;;18.15;15.00;;;;;;;7.07;100.00;103116.25;5268130;28;20504;-78
2023/12/18 05:44:40;;;;;;;23.35;15.57;;;;;;;7.05;100.00;103118.06;5264815;28;20029;-78
2023/12/18 05:47:11;;;;;;;19.92;15.32;;;;;;;7.02;100.00;103117.31;5266133;28;20043;-78
2023/12/18 05:49:43;;;;;;;23.25;15.23;;;;;;;7.02;100.00;103114.72;5266549;28;20021;-79
2023/12/18 05:52:15;;;;;;;22.35;14.93;;;;;;;7.04;100.00;103124.16;5263412;28;20516;-78
2023/12/18 05:54:47;;;;;;;20.80;14.82;;;;;;;7.08;100.00;103119.72;5261240;28;20362;-78
2023/12/18 05:57:19;;;;;;;18.73;14.75;;;;;;;7.10;100.00;103124.88;5265746;28;20040;-79
2023/12/18 05:59:51;;;;;;;23.45;15.00;;;;;;;7.09;100.00;103113.63;5261901;28;20033;-78
2023/12/18 06:02:23;;;;;;;24.25;15.77;;;;;;;7.10;100.00;103114.47;5262514;28;20033;-79
2023/12/18 06:04:55;;;;;;;21.80;15.13;;;;;;;7.07;100.00;103105.81;5264216;28;20025;-78
2023/12/18 06:07:26;;;;;;;23.40;16.00;;;;;;;7.10;100.00;103102.28;5268368;28;20046;-79
2023/12/18 06:09:58;;;;;;;22.42;15.20;;;;;;;7.10;100.00;103102.28;5260628;28;20866;-78
2023/12/18 06:12:31;;;;;;;22.40;15.40;;;;;;;7.11;100.00;103097.91;5262429;28;20132;-78
2023/12/18 06:15:05;;;;;;;20.38;14.52;;;;;;;7.12;100.00;103110.03;5266153;28;20024;-79
2023/12/18 06:17:37;;;;;;;24.73;14.88;;;;;;;7.10;100.00;103109.25;5259174;28;20036;-79
2023/12/18 06:20:09;;;;;;;23.90;15.50;;;;;;;7.11;100.00;103114.41;5255986;28;20035;-78
2023/12/18 06:22:40;;;;;;;19.30;14.48;;;;;;;7.10;100.00;103109.25;5260315;28;20381;-78
2023/12/18 06:25:12;;;;;;;19.63;14.23;;;;;;;7.15;100.00;103104.72;5256772;28;20062;-78
2023/12/18 06:27:44;;;;;;;22.02;14.18;;;;;;;7.10;100.00;103098.81;5263603;28;20044;-80
2023/12/18 06:30:16;;;;;;;22.73;14.90;;;;;;;7.13;100.00;103116.97;5260682;28;20033;-79
2023/12/18 06:32:48;;;;;;;21.25;15.25;;;;;;;7.15;100.00;103109.94;5260722;28;20037;-80
2023/12/18 06:35:20;;;;;;;23.58;14.35;;;;;;;7.16;100.00;103106.41;5257942;28;20045;-79
2023/12/18 06:37:52;;;;;;;21.50;14.63;;;;;;;7.15;100.00;103102.13;5269737;28;20025;-80
2023/12/18 06:40:24;;;;;;;24.55;15.25;;;;;;;7.13;100.00;103102.19;5264551;28;20968;-78
2023/12/18 06:42:56;;;;;;;19.67;14.63;;;;;;;7.13;100.00;103104.78;5260938;28;20016;-79
2023/12/18 06:45:28;;;;;;;23.17;15.00;;;;;;;7.14;100.00;103105.63;5265553;28;20035;-78
2023/12/18 06:48:00;;;;;;;23.98;14.25;;;;;;;7.15;100.00;103100.34;5264390;28;20031;-78
2023/12/18 06:50:32;;;;;;;24.30;16.67;;;;;;;7.11;100.00;103101.38;5264036;28;20024;-79
2023/12/18 06:53:04;;;;;;;24.92;15.13;;;;;;;7.15;100.00;103102.13;5263361;28;20504;-78
2023/12/18 06:55:36;;;;;;;22.08;15.63;;;;;;;7.12;100.00;103099.59;5262993;28;20385;-78
2023/12/18 06:58:08;;;;;;;22.38;14.95;;;;;;;7.17;100.00;103108.97;5265037;28;20037;-78
2023/12/18 07:00:40;;;;;;;24.65;15.65;;;;;;;7.21;100.00;103109.72;5261741;28;20025;-78
2023/12/18 07:03:12;;;;;;;24.23;15.65;;;;;;;7.23;100.00;103105.31;5265361;28;20481;-78
2023/12/18 07:05:45;;;;;;;23.38;15.57;;;;;;;7.26;100.00;103111.25;5265705;28;20390;-78
2023/12/18 07:08:17;;;;;;;22.65;15.23;;;;;;;7.24;100.00;103104.41;5256439;28;20493;-79
2023/12/18 07:10:49;;;;;;;23.55;15.98;;;;;;;7.19;100.00;103111.53;5269383;28;20036;-77
2023/12/18 07:13:21;;;;;;;24.07;15.33;;;;;;;7.18;100.00;103097.66;5263082;28;20029;-79
2023/12/18 07:15:53;;;;;;;24.48;15.57;;;;;;;7.18;100.00;103112.44;5269191;28;20029;-79
2023/12/18 07:18:24;;;;;;;23.13;15.57;;;;;;;7.17;100.00;103113.34;5246971;28;20426;-79
2023/12/18 07:20:56;;;;;;;22.98;15.35;;;;;;;7.17;100.00;103110.75;5264926;28;20032;-79
2023/12/18 07:23:28;;;;;;;24.50;15.98;;;;;;;7.19;100.00;103114.13;5264369;28;20034;-79
2023/12/18 07:26:00;;;;;;;25.50;16.20;;;;;;;7.19;100.00;103121.97;5256241;28;20043;-79
2023/12/18 07:28:32;;;;;;;21.17;15.55;;;;;;;7.19;100.00;103124.56;5259694;28;20052;-79
2023/12/18 07:31:04;;;;;;;26.98;16.88;;;;;;;7.16;100.00;103125.53;5252593;28;20033;-79
2023/12/18 07:33:36;;;;;;;28.23;16.50;;;;;;;7.16;100.00;103125.53;5259939;28;20116;-79
2023/12/18 07:36:09;;;;;;;20.63;16.45;;;;;;;7.21;100.00;103130.59;5253075;28;20037;-79
2023/12/18 07:38:41;;;;;;;23.13;15.85;;;;;;;7.22;100.00;103125.31;5254413;28;20660;-79
2023/12/18 07:41:13;;;;;;;22.38;15.73;;;;;;;7.21;100.00;103121.00;5255904;28;20037;-79
2023/12/18 07:43:45;;;;;;;25.58;16.42;;;;;;;7.21;100.00;103122.78;5258309;28;20082;-80
2023/12/18 07:46:20;;;;;;;23.50;15.57;;;;;;;7.29;100.00;103115.53;5257567;28;20028;-79
2023/12/18 07:48:53;;;;;;;25.50;15.60;;;;;;;7.26;100.00;103119.09;5239984;28;20040;-79
2023/12/18 07:51:25;;;;;;;23.58;16.77;;;;;;;7.29;100.00;103120.75;5257656;28;20045;-79
2023/12/18 07:53:57;;;;;;;23.75;15.85;;;;;;;7.24;100.00;103120.06;5246372;28;20032;-79
2023/12/18 07:56:28;;;;;;;25.00;14.35;;;;;;;7.25;100.00;103112.19;5263142;28;20535;-79
2023/12/18 07:59:01;;;;;;;24.23;16.10;;;;;;;7.23;100.00;103120.94;5261086;28;20028;-79
2023/12/18 08:01:33;;;;;;;22.85;15.57;;;;;;;7.23;100.00;103113.97;5256081;28;20044;-79
2023/12/18 08:04:04;;;;;;;22.38;15.32;;;;;;;7.25;100.00;103119.16;5261044;28;20025;-79
2023/12/18 08:06:37;;;;;;;27.10;16.42;;;;;;;7.23;100.00;103110.50;5257867;28;20379;-79
2023/12/18 08:09:09;;;;;;;23.98;15.60;;;;;;;7.25;100.00;103106.97;5260120;28;20035;-79
2023/12/18 08:11:41;;;;;;;22.80;15.85;;;;;;;7.28;100.00;103104.25;5262440;28;20111;-79
2023/12/18 08:14:13;;;;;;;29.38;17.08;;;;;;;7.28;100.00;103103.41;5260020;28;20115;-79
2023/12/18 08:16:45;;;;;;;24.98;15.10;;;;;;;7.31;100.00;103101.53;5255417;28;20041;-79
2023/12/18 08:19:17;;;;;;;20.48;15.77;;;;;;;7.27;100.00;103091.25;5260069;28;20033;-79
2023/12/18 08:21:49;;;;;;;23.13;15.73;;;;;;;7.38;100.00;103096.09;5255473;28;20049;-79
2023/12/18 08:24:21;;;;;;;25.42;15.73;;;;;;;7.38;100.00;103096.94;5260104;28;20024;-79
2023/12/18 08:26:53;;;;;;;25.42;16.35;;;;;;;7.45;100.00;103102.81;5258063;28;20116;-79
2023/12/18 08:29:25;;;;;;;20.55;15.32;;;;;;;7.50;100.00;103099.13;5259679;28;20363;-79
2023/12/18 08:31:57;;;;;;;21.95;16.50;;;;;;;7.48;100.00;103089.66;5259262;28;20094;-79
2023/12/18 08:34:29;;;;;;;22.10;15.95;;;;;;;7.53;100.00;103095.56;5255668;28;20123;-80
2023/12/18 08:37:03;;;;;;;22.42;14.88;;;;;;;7.49;100.00;103093.97;5259261;28;20100;-79
2023/12/18 08:39:35;;;;;;;22.00;15.57;;;;;;;7.48;100.00;103095.72;5266725;28;20494;-79
2023/12/18 08:42:07;;;;;;;21.10;15.27;;;;;;;7.53;100.00;103095.56;5257589;28;20057;-79
2023/12/18 08:44:39;;;;;;;20.13;13.93;;;;;;;7.52;100.00;103092.09;5258479;28;20051;-79
2023/12/18 08:47:11;;;;;;;23.95;15.15;;;;;;;7.58;100.00;103093.66;5259979;28;20049;-79
2023/12/18 08:49:43;;;;;;;24.60;16.52;;;;;;;7.62;100.00;103097.00;5256709;28;20053;-79
2023/12/18 08:52:15;;;;;;;21.10;14.68;;;;;;;7.57;100.00;103090.16;5263428;28;20131;-78
2023/12/18 08:54:47;;;;;;;25.90;15.50;;;;;;;7.55;100.00;103086.78;5263912;28;20021;-78
2023/12/18 08:57:19;;;;;;;24.02;15.63;;;;;;;7.54;100.00;103090.28;5267187;28;20037;-78
2023/12/18 08:59:51;;;;;;;22.33;15.48;;;;;;;7.55;100.00;103075.50;5267146;28;20406;-77
2023/12/18 09:02:23;;;;;;;22.98;15.55;;;;;;;7.55;100.00;103080.72;5262604;28;20033;-78
2023/12/18 09:04:55;;;;;;;25.02;16.55;;;;;;;7.55;100.00;103071.13;5264816;28;20530;-78
2023/12/18 09:07:27;;;;;;;21.75;15.25;;;;;;;7.67;100.00;103077.66;5272403;28;20036;-78
2023/12/18 09:09:59;;;;;;;22.17;14.93;;;;;;;7.67;100.00;103082.88;5266842;28;20028;-78
2023/12/18 09:12:32;;;;;;;23.85;16.00;;;;;;;7.74;100.00;103076.50;5265009;28;20135;-78
2023/12/18 09:15:04;;;;;;;24.55;15.45;;;;;;;7.80;100.00;103072.81;5264278;28;20047;-78
2023/12/18 09:17:38;;;;;;;21.53;14.90;;;;;;;7.87;100.00;103074.28;5265430;28;20029;-77
2023/12/18 09:20:10;;;;;;;23.30;16.55;;;;;;;7.77;100.00;103059.91;5257767;28;20287;-77
2023/12/18 09:22:45;;;;;;;30.90;15.47;;;;;;;7.87;100.00;103073.44;5259703;28;20390;-77
2023/12/18 09:25:17;;;;;;;22.70;15.32;;;;;;;7.86;100.00;103083.03;5267963;28;20009;-77
2023/12/18 09:27:49;;;;;;;24.30;15.50;;;;;;;7.81;100.00;103071.94;5266709;28;20076;-77
2023/12/18 09:30:21;;;;;;;27.02;15.55;;;;;;;7.93;100.00;103081.06;5266760;28;20039;-77
2023/12/18 09:32:53;;;;;;;23.70;14.98;;;;;;;7.98;100.00;103079.09;5269079;28;20040;-77
2023/12/18 09:35:25;;;;;;;26.65;16.52;;;;;;;7.87;100.00;103089.09;5270571;28;20052;-77
2023/12/18 09:37:57;;;;;;;22.02;15.20;;;;;;;7.90;100.00;103086.38;5271881;28;20127;-77
2023/12/18 09:40:29;;;;;;;21.92;15.55;;;;;;;7.94;100.00;103085.34;5268989;28;20040;-77
2023/12/18 09:43:03;;;;;;;25.73;15.70;;;;;;;7.92;100.00;103085.41;5263467;28;20043;-77
2023/12/18 09:45:35;;;;;;;24.83;15.63;;;;;;;7.92;100.00;103092.41;5265375;28;20052;-77
2023/12/18 09:48:08;;;;;;;21.77;15.50;;;;;;;7.92;100.00;103088.03;5267611;28;20033;-77
2023/12/18 09:50:40;;;;;;;22.17;15.77;;;;;;;7.97;100.00;103090.47;5268528;28;20037;-77
2023/12/18 09:53:17;;;;;;;22.92;15.48;;;;;;;7.99;100.00;103084.28;5263559;28;20811;-77
2023/12/18 09:55:51;;;;;;;20.38;15.68;;;;;;;7.88;100.00;103076.00;5260498;28;20029;-77
2023/12/18 09:58:26;;;;;;;26.88;15.80;;;;;;;7.87;100.00;103076.91;5262293;28;20029;-77
2023/12/18 10:00:59;;;;;;;21.98;15.43;;;;;;;7.84;100.00;103071.81;5260197;28;20037;-77
2023/12/18 10:03:31;;;;;;;23.02;16.33;;;;;;;7.87;100.00;103071.69;5267331;28;20479;-77
2023/12/18 10:06:03;;;;;;;25.58;16.52;;;;;;;7.89;100.00;103080.31;5262056;28;20043;-78
2023/12/18 10:08:35;;;;;;;23.80;15.55;;;;;;;7.90;100.00;103074.19;5270084;28;20049;-77
2023/12/18 10:11:25;;;;;;;26.83;16.17;;;;;;;8.10;100.00;103078.63;5267056;28;20082;-77
2023/12/18 10:13:58;;;;;;;23.15;15.27;;;;;;;7.96;100.00;103065.28;5264043;28;20479;-77
2023/12/18 10:16:32;;;;;;;23.48;16.42;;;;;;;7.94;100.00;103077.53;5275090;28;20493;-77
2023/12/18 10:19:03;;;;;;;23.85;15.93;;;;;;;7.90;100.00;103068.97;5276491;28;20043;-77
2023/12/18 10:21:39;;;;;;;22.65;15.88;;;;;;;7.93;100.00;103070.59;5267495;28;20025;-77
2023/12/18 10:24:11;;;;;;;22.83;14.85;;;;;;;7.86;100.00;103075.19;5263758;28;20028;-77
2023/12/18 10:26:42;;;;;;;20.27;15.43;;;;;;;7.84;100.00;103077.03;5270823;28;20051;-77
2023/12/18 10:29:15;;;;;;;22.67;15.10;;;;;;;7.87;100.00;103079.50;5267876;28;20042;-77
2023/12/18 10:31:47;;;;;;;24.98;16.45;;;;;;;7.87;100.00;103069.06;5260305;28;20044;-77
2023/12/18 10:34:20;;;;;;;21.02;14.75;;;;;;;7.83;100.00;103062.25;5267080;28;20040;-77
2023/12/18 10:36:55;;;;;;;21.50;15.00;;;;;;;7.86;100.00;103062.16;5271832;28;20033;-77
2023/12/18 10:39:29;;;;;;;25.38;16.10;;;;;;;7.95;100.00;103067.00;5264649;28;20048;-77
2023/12/18 10:42:06;;;;;;;23.90;14.95;;;;;;;7.84;100.00;103057.88;5264235;28;20040;-77
2023/12/18 10:44:40;;;;;;;23.00;14.98;;;;;;;7.80;100.00;103052.81;5268701;28;20037;-77
2023/12/18 10:47:16;;;;;;;22.65;14.43;;;;;;;7.86;100.00;103046.50;5266314;28;20031;-77
2023/12/18 10:49:49;;;;;;;23.25;14.68;;;;;;;7.87;100.00;103048.19;5269403;28;20048;-77
2023/12/18 10:52:22;;;;;;;22.60;15.30;;;;;;;7.86;100.00;103041.28;5264507;28;20043;-77
2023/12/18 10:54:57;;;;;;;21.10;14.63;;;;;;;7.90;100.00;103031.56;5262692;28;20029;-77
2023/12/18 10:57:29;;;;;;;19.85;14.32;;;;;;;7.81;100.00;103019.72;5264482;28;20043;-77
2023/12/18 11:00:03;;;;;;;21.00;14.77;;;;;;;7.83;100.00;103025.72;5272433;28;20028;-78
2023/12/18 11:02:37;;;;;;;22.17;15.10;;;;;;;7.86;100.00;103014.34;5266793;28;20043;-78
2023/12/18 11:05:12;;;;;;;23.55;15.20;;;;;;;7.80;100.00;103020.63;5269534;28;20040;-78
2023/12/18 11:07:44;;;;;;;20.95;14.13;;;;;;;7.78;100.00;103022.44;5272129;28;20028;-77
2023/12/18 11:10:17;;;;;;;22.75;14.75;;;;;;;7.84;100.00;103010.91;5270266;28;20036;-77
2023/12/18 11:12:53;;;;;;;22.08;15.15;;;;;;;7.77;100.00;103021.59;5265528;28;20032;-77
2023/12/18 11:15:38;;;;;;;22.05;14.73;;;;;;;7.84;100.00;103017.00;5266091;28;20032;-78
2023/12/18 11:18:33;;;;;;;21.02;14.50;;;;;;;8.04;100.00;103014.47;5275738;28;20039;-78
2023/12/18 11:21:05;;;;;;;21.27;14.30;;;;;;;7.80;100.00;103023.22;5275427;28;20020;-78
2023/12/18 11:23:41;;;;;;;21.40;14.13;;;;;;;7.87;100.00;103021.25;5273122;28;20551;-77
2023/12/18 11:26:13;;;;;;;19.70;14.48;;;;;;;7.86;100.00;103012.56;5282499;28;20537;-78
2023/12/18 11:28:48;;;;;;;22.35;14.00;;;;;;;7.79;100.00;103011.94;5278036;28;20059;-78
2023/12/18 11:31:20;;;;;;;21.45;14.60;;;;;;;7.76;100.00;103014.66;5268649;28;20612;-78
2023/12/18 11:33:59;;;;;;;19.70;13.65;;;;;;;7.78;100.00;103017.25;5274666;28;20037;-77